ADDS METAR Data INFO
IDs: Format: Raw Decoded Include TAF

Data at: 2033 UTC 20 Jul 2018

KMFD 202015Z 18012KT 8SM -RA SCT013 BKN070 OVC100 21/19 A2990 RMK AO2 PRESFR P0002 T02110194
KMFD 202002Z 22011G17KT 5SM RA BR BKN011 BKN023 OVC090 22/20 A2993 RMK AO2 P0001 T02170200
KMFD 201952Z 20011KT 8SM -RA FEW014 SCT065 OVC090 22/21 A2992 RMK AO2 RAE12B41 SLP124 P0000 T02220206
KMFD 201852Z 19011KT 10SM -RA FEW012 OVC100 22/19 A2994 RMK AO2 RAB1753 SLP130 P0001 T02170194
KMFD 201840Z 20009KT 9SM -RA FEW012 SCT034 OVC100 22/20 A2994 RMK AO2 RAB1753 P0001 T02170200
KMFD 201752Z 16007KT 10SM BKN012 BKN016 OVC110 22/20 A2994 RMK AO2 RAB33E44 SLP131 P0000 60004 T02220200 10267 20217 51002
KMFD 201652Z 15013KT 10SM SCT048 BKN110 22/19 A2995 RMK AO2 LTG DSNT N AND NE RAE07B26E43 SLP135 P0000 T02220194
KMFD 201609Z 17008KT 10SM FEW042 BKN100 BKN120 22/20 A2995 RMK AO2 LTG DSNT NW-E RAE07 P0000 T02220200
KMFD 201600Z 18008KT 6SM VCTS -RA BR FEW022 BKN050 OVC100 22/21 A2995 RMK AO2 LTG DSNT ALQDS P0000 T02220211
KMFD 201552Z AUTO 20003KT 2 1/2SM VCTS RA BR SCT022 BKN055 OVC100 22/20 A2994 RMK AO2 LTG DSNT ALQDS RAB39 SLP130 P0004 T02220200
KMFD 201549Z AUTO 19007KT 2 1/2SM VCTS +RA BR SCT022 BKN034 OVC090 22/20 A2994 RMK AO2 LTG DSNT ALQDS RAB39 P0002
KMFD 201540Z AUTO 19013KT 9SM VCTS -RA BKN022 BKN035 OVC044 23/19 A2995 RMK AO2 LTG DSNT W RAB39 P0000 T02330194
KMFD 201513Z AUTO 19013KT 10SM BKN023 25/19 A2995 RMK AO2 LTG DSNT S-W T02500194
KMFD 201452Z AUTO 18011KT 10SM FEW021 26/20 A2994 RMK AO2 LTG DSNT S AND SW SLP129 T02610200 58003
KMFD 201442Z AUTO 20012KT 10SM SCT021 26/19 A2994 RMK AO2 T02560194
KMFD 201428Z AUTO 18012KT 10SM BKN021 26/19 A2995 RMK AO2 T02560194
KMFD 201352Z AUTO 16011KT 10SM FEW042 24/18 A2995 RMK AO2 SLP131 T02440183
KMFD 201252Z AUTO 16013KT 10SM CLR 23/18 A2995 RMK AO2 SLP133 T02280178
KMFD 201152Z AUTO 15010KT 10SM CLR 22/18 A2995 RMK AO2 SLP132 T02170178 10217 20189 53001
KMFD 201052Z AUTO 15008KT 10SM CLR 20/17 A2995 RMK AO2 SLP131 T02000172 $
KMFD 200952Z AUTO 15008KT 10SM FEW050 20/17 A2995 RMK AO2 SLP130 T02000167 $
KMFD 200852Z AUTO 15008KT 10SM CLR 19/16 A2995 RMK AO2 SLP131 T01940156 58007 $
KMFD 200752Z AUTO 15006KT 10SM SCT055 19/14 A2996 RMK AO2 SLP136 T01940144 $
KMFD 200652Z AUTO 16005KT 10SM SCT055 19/14 A2996 RMK AO2 SLP136 T01940144 $
KMFD 200552Z AUTO 16005KT 10SM FEW055 20/14 A2997 RMK AO2 SLP139 T02000144 10261 20189 58014 $
KMFD 200452Z AUTO 15005KT 10SM CLR 19/14 A2999 RMK AO2 SLP147 T01890144 402830128 $
KMFD 200352Z AUTO 14005KT 10SM CLR 20/14 A3000 RMK AO2 SLP152 T02000144 $
KMFD 200252Z 14004KT 10SM CLR 21/14 A3001 RMK AO2 SLP155 T02110144 53002 $
KMFD 200152Z 13005KT 10SM CLR 22/14 A3001 RMK AO2 SLP153 T02170144 $
KMFD 200052Z 12004KT 10SM CLR 23/14 A3000 RMK AO2 SLP151 T02330144 $
KMFD 192352Z 14008KT 10SM CLR 26/13 A3001 RMK AO2 SLP152 T02610133 10283 20261 58009 $
KMFD 192252Z 14010KT 10SM CLR 27/13 A3001 RMK AO2 SLP157 T02670133 $
KMFD 192152Z 12006KT 10SM CLR 28/14 A3003 RMK AO2 SLP163 T02780139 $
KMFD 192052Z VRB04KT 10SM CLR 28/12 A3003 RMK AO2 SLP164 T02780122 56014 $
KMFD 191952Z 14009KT 10SM CLR 28/13 A3005 RMK AO2 SLP168 T02780133 $
KMFD 191852Z 12009KT 10SM CLR 27/13 A3006 RMK AO2 SLP171 T02670133 $
KMFD 191752Z 15009KT 10SM CLR 27/14 A3008 RMK AO2 SLP178 T02720144 10272 20178 58013 $
KMFD 191652Z 10006KT 10SM CLR 26/14 A3009 RMK AO2 SLP183 T02610144 $
KMFD 191552Z VRB03KT 10SM CLR 24/13 A3011 RMK AO2 SLP189 T02440128 $
KMFD 191452Z 13006KT 10SM CLR 24/14 A3012 RMK AO2 SLP192 T02390139 50001 $
KMFD 191352Z 15005KT 10SM CLR 22/13 A3012 RMK AO2 SLP194 T02220133 $
KMFD 191252Z 10006KT 10SM CLR 21/14 A3012 RMK AO2 SLP192 T02060139 $
KMFD 191152Z 12003KT 10SM CLR 18/13 A3011 RMK AO2 SLP190 T01780128 10178 20128 51006 $
KMFD 191052Z 14003KT 10SM CLR 14/11 A3011 RMK AO2 SLP190 T01390111 $
KMFD 190952Z AUTO 17003KT 10SM CLR 14/12 A3011 RMK AO2 SLP188 T01440117 $
KMFD 190852Z AUTO 17003KT 10SM CLR 13/11 A3009 RMK AO2 SLP185 T01280111 55002 $